createdAt,value
2017-09-16T00:00:37.891Z,11.90
2017-09-16T00:03:06.905Z,12.00
2017-09-16T00:05:36.754Z,12.00
2017-09-16T00:08:04.217Z,12.00
2017-09-16T00:10:31.671Z,11.90
2017-09-16T00:13:00.197Z,11.80
2017-09-16T00:15:28.087Z,11.80
2017-09-16T00:17:56.457Z,11.70
2017-09-16T00:20:23.959Z,11.70
2017-09-16T00:22:51.501Z,11.60
2017-09-16T00:25:19.603Z,11.50
2017-09-16T00:27:47.370Z,11.50
2017-09-16T00:30:15.648Z,11.40
2017-09-16T00:32:43.173Z,11.40
2017-09-16T00:35:10.689Z,11.50
2017-09-16T00:37:38.203Z,11.50
2017-09-16T00:40:05.844Z,11.50
2017-09-16T00:42:34.341Z,11.50
2017-09-16T00:45:02.214Z,11.60
2017-09-16T00:47:31.206Z,11.60
2017-09-16T00:50:00.044Z,11.60
2017-09-16T00:52:28.933Z,11.60
2017-09-16T00:54:57.562Z,11.50
2017-09-16T00:57:25.364Z,11.50
2017-09-16T00:59:54.583Z,11.40
2017-09-16T01:02:23.184Z,11.40
2017-09-16T01:04:50.675Z,11.40
2017-09-16T01:07:18.709Z,11.30
2017-09-16T01:09:48.197Z,11.30
2017-09-16T01:12:17.066Z,11.20
2017-09-16T01:14:45.993Z,11.20
2017-09-16T01:17:13.455Z,11.20
2017-09-16T01:19:42.469Z,11.20
2017-09-16T01:22:10.032Z,11.20
2017-09-16T01:24:37.592Z,11.20
2017-09-16T01:27:05.605Z,11.20
2017-09-16T01:29:33.114Z,11.20
2017-09-16T01:32:00.650Z,11.10
2017-09-16T01:34:28.943Z,11.20
2017-09-16T01:36:57.181Z,11.10
2017-09-16T01:39:25.027Z,11.10
2017-09-16T01:41:53.615Z,11.10
2017-09-16T01:44:22.782Z,11.10
2017-09-16T01:46:50.882Z,11.10
2017-09-16T01:49:18.418Z,11.10
2017-09-16T01:51:45.946Z,11.10
2017-09-16T01:54:14.627Z,11.00
2017-09-16T01:56:43.452Z,11.00
2017-09-16T01:59:11.339Z,11.00
2017-09-16T02:01:40.761Z,10.90
2017-09-16T02:04:08.429Z,10.90
2017-09-16T02:06:36.149Z,10.90
2017-09-16T02:09:03.681Z,10.90
2017-09-16T02:11:31.384Z,10.90
2017-09-16T02:13:58.998Z,10.90
2017-09-16T02:16:27.032Z,10.90
2017-09-16T02:18:54.529Z,10.90
2017-09-16T02:21:22.862Z,10.80
2017-09-16T02:23:50.338Z,10.80
2017-09-16T02:26:19.535Z,10.90
2017-09-16T02:28:48.323Z,10.90
2017-09-16T02:31:16.761Z,10.80
2017-09-16T02:33:45.028Z,10.90
2017-09-16T02:36:13.504Z,10.80
2017-09-16T02:38:40.985Z,10.80
2017-09-16T02:41:08.522Z,10.80
2017-09-16T02:43:35.991Z,10.80
2017-09-16T02:46:04.083Z,10.80
2017-09-16T02:48:31.731Z,10.90
2017-09-16T02:50:59.238Z,10.90
2017-09-16T02:53:26.726Z,10.90
2017-09-16T02:55:54.594Z,10.90
2017-09-16T02:58:23.222Z,10.90
2017-09-16T03:00:52.019Z,10.80
2017-09-16T03:03:20.510Z,10.80
2017-09-16T03:05:49.339Z,10.80
2017-09-16T03:08:18.627Z,10.80
2017-09-16T03:10:47.128Z,10.80
2017-09-16T03:13:14.576Z,10.80
2017-09-16T03:15:42.691Z,10.80
2017-09-16T03:18:10.986Z,10.70
2017-09-16T03:20:38.460Z,10.70
2017-09-16T03:23:05.958Z,10.70
2017-09-16T03:25:34.127Z,10.70
2017-09-16T03:28:02.222Z,10.70
2017-09-16T03:30:30.450Z,10.70
2017-09-16T03:32:58.040Z,10.60
2017-09-16T03:35:27.701Z,10.60
2017-09-16T03:37:55.383Z,10.60
2017-09-16T03:40:23.203Z,10.60
2017-09-16T03:42:52.001Z,10.60
2017-09-16T03:45:20.318Z,10.60
2017-09-16T03:47:48.156Z,10.60
2017-09-16T03:50:16.472Z,10.60
2017-09-16T03:52:45.084Z,10.70
2017-09-16T03:55:13.690Z,10.60
2017-09-16T03:57:41.382Z,10.70
2017-09-16T04:00:09.722Z,10.70
2017-09-16T04:02:46.489Z,10.80
2017-09-16T04:05:13.996Z,10.80
2017-09-16T04:07:42.706Z,10.60
2017-09-16T04:10:10.188Z,10.80
2017-09-16T04:12:37.673Z,10.80
2017-09-16T04:15:05.641Z,10.90
2017-09-16T04:17:34.817Z,10.90
2017-09-16T04:20:02.294Z,10.90
2017-09-16T04:22:29.830Z,10.90
2017-09-16T04:24:58.234Z,10.90
2017-09-16T04:27:26.744Z,10.90
2017-09-16T04:29:54.219Z,10.90
2017-09-16T04:32:21.675Z,10.90
2017-09-16T04:34:49.830Z,10.90
2017-09-16T04:37:17.300Z,10.90
2017-09-16T04:39:44.785Z,10.90
2017-09-16T04:42:12.325Z,11.00
2017-09-16T04:44:40.283Z,11.00
2017-09-16T04:47:09.916Z,11.00
2017-09-16T04:49:38.136Z,11.10
2017-09-16T04:52:05.608Z,11.10
2017-09-16T04:54:33.080Z,11.10
2017-09-16T04:57:01.272Z,11.10
2017-09-16T04:59:28.734Z,11.10
2017-09-16T05:01:56.600Z,11.20
2017-09-16T05:04:24.067Z,11.10
2017-09-16T05:06:52.030Z,11.20
2017-09-16T05:09:19.512Z,11.20
2017-09-16T05:11:46.964Z,11.20
2017-09-16T05:14:14.621Z,11.20
2017-09-16T05:16:42.493Z,11.20
2017-09-16T05:19:10.797Z,11.30
2017-09-16T05:21:38.521Z,11.20
2017-09-16T05:24:06.008Z,11.30
2017-09-16T05:26:34.273Z,11.30
2017-09-16T05:29:01.887Z,11.30
2017-09-16T05:31:29.338Z,11.30
2017-09-16T05:33:57.036Z,11.30
2017-09-16T05:36:24.867Z,11.40
2017-09-16T05:38:53.238Z,11.40
2017-09-16T05:41:21.450Z,11.40
2017-09-16T05:43:50.245Z,11.40
2017-09-16T05:46:18.620Z,11.40
2017-09-16T05:48:46.885Z,11.40
2017-09-16T05:51:15.135Z,11.40
2017-09-16T05:53:42.996Z,11.40
2017-09-16T05:56:11.628Z,11.40
2017-09-16T05:58:39.413Z,11.40
2017-09-16T06:01:07.978Z,11.40
2017-09-16T06:03:35.930Z,11.40
2017-09-16T06:06:03.769Z,11.30
2017-09-16T06:08:31.621Z,11.30
2017-09-16T06:10:59.078Z,11.40
2017-09-16T06:13:27.303Z,11.40
2017-09-16T06:15:54.968Z,11.40
2017-09-16T06:18:22.722Z,11.40
2017-09-16T06:20:51.041Z,11.40
2017-09-16T06:23:19.508Z,11.40
2017-09-16T06:25:47.298Z,11.40
2017-09-16T06:28:15.664Z,11.40
2017-09-16T06:30:43.982Z,11.50
2017-09-16T06:33:13.159Z,11.50
2017-09-16T06:35:41.198Z,11.50
2017-09-16T06:38:09.912Z,11.60
2017-09-16T06:40:37.432Z,11.60
2017-09-16T06:43:04.908Z,11.60
2017-09-16T06:45:32.411Z,11.70
2017-09-16T06:48:00.118Z,11.60
2017-09-16T06:50:28.342Z,11.60
2017-09-16T06:52:55.867Z,11.60
2017-09-16T06:55:23.706Z,11.70
2017-09-16T06:57:52.312Z,11.60
2017-09-16T07:00:19.770Z,11.70
2017-09-16T07:02:47.913Z,11.70
2017-09-16T07:05:15.486Z,11.70
2017-09-16T07:07:43.926Z,11.60
2017-09-16T07:10:12.210Z,11.60
2017-09-16T07:12:39.787Z,11.60
2017-09-16T07:15:07.879Z,11.70
2017-09-16T07:17:35.838Z,11.70
2017-09-16T07:20:04.706Z,11.80
2017-09-16T07:22:32.581Z,11.80
2017-09-16T07:25:00.725Z,11.80
2017-09-16T07:27:29.397Z,11.80
2017-09-16T07:29:57.606Z,11.90
2017-09-16T07:32:25.321Z,11.80
2017-09-16T07:34:53.180Z,11.90
2017-09-16T07:37:20.666Z,11.90
2017-09-16T07:39:48.152Z,11.90
2017-09-16T07:42:15.631Z,12.00
2017-09-16T07:44:43.104Z,12.00
2017-09-16T07:47:12.001Z,11.90
2017-09-16T07:49:40.777Z,12.00
2017-09-16T07:52:09.018Z,12.10
2017-09-16T07:54:37.677Z,12.10
2017-09-16T07:57:06.571Z,12.10
2017-09-16T07:59:35.290Z,12.20
2017-09-16T08:02:03.267Z,12.20
2017-09-16T08:04:30.775Z,12.30
2017-09-16T08:06:58.674Z,12.30
2017-09-16T08:09:27.230Z,12.50
2017-09-16T08:11:55.050Z,12.40
2017-09-16T08:14:22.617Z,12.60
2017-09-16T08:16:50.073Z,12.60
2017-09-16T08:19:17.931Z,12.70
2017-09-16T08:21:45.393Z,12.70
2017-09-16T08:24:12.938Z,12.80
2017-09-16T08:26:43.531Z,12.80
2017-09-16T08:29:11.744Z,12.90
2017-09-16T08:31:39.231Z,12.90
2017-09-16T08:34:06.722Z,13.00
2017-09-16T08:36:34.695Z,13.20
2017-09-16T08:39:02.335Z,13.20
2017-09-16T08:41:30.525Z,13.30
2017-09-16T08:43:58.787Z,13.50
2017-09-16T08:46:27.379Z,13.60
2017-09-16T08:48:54.865Z,13.60
2017-09-16T08:51:22.325Z,13.60
2017-09-16T08:53:50.194Z,13.70
2017-09-16T08:56:18.814Z,13.80
2017-09-16T08:58:46.589Z,13.80
2017-09-16T09:01:14.659Z,14.00
2017-09-16T09:03:43.649Z,14.00
2017-09-16T09:06:12.682Z,13.90
2017-09-16T09:08:40.841Z,13.90
2017-09-16T09:11:08.544Z,14.00
2017-09-16T09:13:36.073Z,14.00
2017-09-16T09:16:04.325Z,14.10
2017-09-16T09:18:33.311Z,14.10
2017-09-16T09:21:01.538Z,14.10
2017-09-16T09:23:29.055Z,14.10
2017-09-16T09:25:57.023Z,14.00
2017-09-16T09:28:25.418Z,14.00
2017-09-16T09:30:53.647Z,14.10
2017-09-16T09:33:21.102Z,14.10
2017-09-16T09:35:50.021Z,14.20
2017-09-16T09:38:18.025Z,14.30
2017-09-16T09:40:45.482Z,14.40
2017-09-16T09:43:13.747Z,14.60
2017-09-16T09:45:41.698Z,14.50
2017-09-16T09:48:09.423Z,14.60
2017-09-16T09:50:37.565Z,14.60
2017-09-16T09:53:05.018Z,14.60
2017-09-16T09:55:33.038Z,14.70
2017-09-16T09:58:01.806Z,14.90
2017-09-16T10:00:29.563Z,14.90
2017-09-16T10:02:57.289Z,14.90
2017-09-16T10:05:24.817Z,14.90
2017-09-16T10:07:54.070Z,15.00
2017-09-16T10:10:21.561Z,15.00
2017-09-16T10:12:49.037Z,15.00
2017-09-16T10:15:16.489Z,14.90
2017-09-16T10:17:44.032Z,14.80
2017-09-16T10:20:12.041Z,14.80
2017-09-16T10:22:39.512Z,14.80
2017-09-16T10:25:07.414Z,15.00
2017-09-16T10:27:35.628Z,15.00
2017-09-16T10:30:03.189Z,15.00
2017-09-16T10:32:30.648Z,15.00
2017-09-16T10:34:58.291Z,14.90
2017-09-16T10:37:26.534Z,15.00
2017-09-16T10:39:54.931Z,15.00
2017-09-16T10:42:22.421Z,15.00
2017-09-16T10:44:50.773Z,15.00
2017-09-16T10:47:19.132Z,15.00
2017-09-16T10:49:46.590Z,15.10
2017-09-16T10:52:14.074Z,15.30
2017-09-16T10:54:42.880Z,15.50
2017-09-16T10:57:11.095Z,15.50
2017-09-16T10:59:39.316Z,15.70
2017-09-16T11:02:07.775Z,15.60
2017-09-16T11:04:35.422Z,15.70
2017-09-16T11:07:03.348Z,15.80
2017-09-16T11:09:30.867Z,15.80
2017-09-16T11:11:59.174Z,16.10
2017-09-16T11:14:26.639Z,16.10
2017-09-16T11:16:54.305Z,16.30
2017-09-16T11:19:22.872Z,16.40
2017-09-16T11:21:51.112Z,16.80
2017-09-16T11:24:18.682Z,16.80
2017-09-16T11:26:46.739Z,17.00
2017-09-16T11:29:14.989Z,17.20
2017-09-16T11:31:43.212Z,17.20
2017-09-16T11:34:11.610Z,17.20
2017-09-16T11:36:39.581Z,17.00
2017-09-16T11:39:07.825Z,16.70
2017-09-16T11:41:36.844Z,16.60
2017-09-16T11:44:04.306Z,16.50
2017-09-16T11:46:33.379Z,16.50
2017-09-16T11:49:00.926Z,16.50
2017-09-16T11:51:28.395Z,16.30
2017-09-16T11:53:56.675Z,16.30
2017-09-16T11:56:25.646Z,16.30
2017-09-16T11:58:53.397Z,16.30
2017-09-16T12:01:22.421Z,16.40
2017-09-16T12:03:49.971Z,16.40
2017-09-16T12:06:18.473Z,16.40
2017-09-16T12:08:46.110Z,16.40
2017-09-16T12:11:13.638Z,16.40
2017-09-16T12:13:41.417Z,16.40
2017-09-16T12:16:08.927Z,16.40
2017-09-16T12:18:36.381Z,16.30
2017-09-16T12:21:05.076Z,16.30
2017-09-16T12:23:33.402Z,16.30
2017-09-16T12:26:02.335Z,16.30
2017-09-16T12:28:29.830Z,16.30
2017-09-16T12:30:57.295Z,16.30
2017-09-16T12:33:26.479Z,16.30
2017-09-16T12:35:54.817Z,16.30
2017-09-16T12:38:22.298Z,16.30
2017-09-16T12:40:50.741Z,16.30
2017-09-16T12:43:18.971Z,16.20
2017-09-16T12:45:46.936Z,16.20
2017-09-16T12:48:14.828Z,16.20
2017-09-16T12:50:42.386Z,16.20
2017-09-16T12:53:09.883Z,16.20
2017-09-16T12:55:38.808Z,16.20
2017-09-16T12:58:06.745Z,16.20
2017-09-16T13:00:34.226Z,16.20
2017-09-16T13:03:02.759Z,16.20
2017-09-16T13:05:31.485Z,16.20
2017-09-16T13:07:59.285Z,16.20
2017-09-16T13:10:26.790Z,16.20
2017-09-16T13:12:54.263Z,16.20
2017-09-16T13:15:21.822Z,16.20
2017-09-16T13:17:49.458Z,16.20
2017-09-16T13:20:18.138Z,16.30
2017-09-16T13:22:46.557Z,16.40
2017-09-16T13:25:15.317Z,16.40
2017-09-16T13:27:43.576Z,16.50
2017-09-16T13:30:12.514Z,16.60
2017-09-16T13:32:41.111Z,16.50
2017-09-16T13:35:09.655Z,16.70
2017-09-16T13:37:37.356Z,16.80
2017-09-16T13:40:06.641Z,17.00
2017-09-16T13:42:34.223Z,17.00
2017-09-16T13:45:02.495Z,17.00
2017-09-16T13:47:30.465Z,17.10
2017-09-16T13:49:59.505Z,17.20
2017-09-16T13:52:27.051Z,17.20
2017-09-16T13:54:55.255Z,17.20
2017-09-16T13:57:23.307Z,17.20
2017-09-16T13:59:50.817Z,17.20
2017-09-16T14:02:18.921Z,17.20
2017-09-16T14:04:47.128Z,17.30
2017-09-16T14:07:14.972Z,17.20
2017-09-16T14:09:42.426Z,17.40
2017-09-16T14:12:09.951Z,17.60
2017-09-16T14:14:37.493Z,17.60
2017-09-16T14:17:04.982Z,17.70
2017-09-16T14:19:32.602Z,17.70
2017-09-16T14:22:00.534Z,17.80
2017-09-16T14:24:28.021Z,18.10
2017-09-16T14:26:56.770Z,18.90
2017-09-16T14:29:25.416Z,19.30
2017-09-16T14:31:52.921Z,19.30
2017-09-16T14:34:21.178Z,19.90
2017-09-16T14:36:50.427Z,20.30
2017-09-16T14:39:17.984Z,20.20
2017-09-16T14:41:45.486Z,20.50
2017-09-16T14:44:12.944Z,20.80
2017-09-16T14:46:40.932Z,21.00
2017-09-16T14:49:09.149Z,21.30
2017-09-16T14:51:37.175Z,21.20
2017-09-16T14:54:04.616Z,21.30
2017-09-16T14:56:32.630Z,21.40
2017-09-16T14:59:00.495Z,21.50
2017-09-16T15:01:29.358Z,21.50
2017-09-16T15:03:58.088Z,21.50
2017-09-16T15:06:26.199Z,21.50
2017-09-16T15:08:54.440Z,21.50
2017-09-16T15:11:21.955Z,21.50
2017-09-16T15:13:49.468Z,21.60
2017-09-16T15:16:17.840Z,21.60
2017-09-16T15:18:45.355Z,21.70
2017-09-16T15:21:14.748Z,21.90
2017-09-16T15:23:42.214Z,21.90
2017-09-16T15:26:10.345Z,21.90
2017-09-16T15:28:38.693Z,21.80
2017-09-16T15:31:06.933Z,21.70
2017-09-16T15:33:34.641Z,21.70
2017-09-16T15:36:02.762Z,21.70
2017-09-16T15:38:31.152Z,21.40
2017-09-16T15:40:59.526Z,21.10
2017-09-16T15:43:27.033Z,20.80
2017-09-16T15:45:55.234Z,20.60
2017-09-16T15:48:23.038Z,20.60
2017-09-16T15:50:50.672Z,20.60
2017-09-16T15:53:20.153Z,20.60
2017-09-16T15:55:48.898Z,20.50
2017-09-16T15:58:17.138Z,20.50
2017-09-16T16:00:45.965Z,20.30
2017-09-16T16:03:14.788Z,19.90
2017-09-16T16:05:42.271Z,19.90
2017-09-16T16:08:14.788Z,19.60
2017-09-16T16:10:42.686Z,19.60
2017-09-16T16:13:10.967Z,19.50
2017-09-16T16:15:39.187Z,19.50
2017-09-16T16:18:06.741Z,19.40
2017-09-16T16:20:34.386Z,19.40
2017-09-16T16:23:03.525Z,19.30
2017-09-16T16:25:31.683Z,19.30
2017-09-16T16:27:59.170Z,19.10
2017-09-16T16:30:26.757Z,19.10
2017-09-16T16:32:54.321Z,19.00
2017-09-16T16:35:21.817Z,18.90
2017-09-16T16:37:50.429Z,18.90
2017-09-16T16:40:17.980Z,18.90
2017-09-16T16:42:45.682Z,18.80
2017-09-16T16:45:13.231Z,18.70
2017-09-16T16:47:41.089Z,18.60
2017-09-16T16:50:08.647Z,18.60
2017-09-16T16:52:36.649Z,18.50
2017-09-16T16:55:05.150Z,18.40
2017-09-16T16:57:33.144Z,18.40
2017-09-16T17:00:00.609Z,18.40
2017-09-16T17:02:29.471Z,18.40
2017-09-16T17:04:57.632Z,18.40
2017-09-16T17:07:25.749Z,18.30
2017-09-16T17:09:53.492Z,18.20
2017-09-16T17:12:21.001Z,18.10
2017-09-16T17:14:48.665Z,18.00
2017-09-16T17:17:16.138Z,17.90
2017-09-16T17:19:43.669Z,17.80
2017-09-16T17:22:12.288Z,17.70
2017-09-16T17:24:40.697Z,17.60
2017-09-16T17:27:09.039Z,17.50
2017-09-16T17:29:36.532Z,17.40
2017-09-16T17:32:04.020Z,17.40
2017-09-16T17:34:31.543Z,17.30
2017-09-16T17:36:59.872Z,17.10
2017-09-16T17:39:27.492Z,17.10
2017-09-16T17:41:55.182Z,17.00
2017-09-16T17:44:24.178Z,16.90
2017-09-16T17:46:52.877Z,16.90
2017-09-16T17:49:20.401Z,16.90
2017-09-16T17:51:47.915Z,16.80
2017-09-16T17:54:15.370Z,16.80
2017-09-16T17:56:45.468Z,16.60
2017-09-16T17:59:13.876Z,16.60
2017-09-16T18:01:42.630Z,16.50
2017-09-16T18:04:10.684Z,16.50
2017-09-16T18:06:38.743Z,16.40
2017-09-16T18:09:06.200Z,16.40
2017-09-16T18:11:33.725Z,16.40
2017-09-16T18:14:01.232Z,16.40
2017-09-16T18:16:29.494Z,16.20
2017-09-16T18:18:57.784Z,16.20
2017-09-16T18:21:25.280Z,16.20
2017-09-16T18:23:53.938Z,16.20
2017-09-16T18:26:22.173Z,16.20
2017-09-16T18:28:49.631Z,16.10
2017-09-16T18:31:17.935Z,16.10
2017-09-16T18:33:46.682Z,16.10
2017-09-16T18:36:15.665Z,16.00
2017-09-16T18:38:43.132Z,16.00
2017-09-16T18:41:10.767Z,16.00
2017-09-16T18:43:39.005Z,15.90
2017-09-16T18:46:08.696Z,15.90
2017-09-16T18:48:36.166Z,15.90
2017-09-16T18:51:05.059Z,15.80
2017-09-16T18:53:32.545Z,15.80
2017-09-16T18:56:00.673Z,15.80
2017-09-16T18:58:28.671Z,15.80
2017-09-16T19:00:57.541Z,15.70
2017-09-16T19:03:25.007Z,15.70
2017-09-16T19:05:53.274Z,15.70
2017-09-16T19:08:21.259Z,15.60
2017-09-16T19:10:48.711Z,15.60
2017-09-16T19:13:16.582Z,15.60
2017-09-16T19:15:44.049Z,15.60
2017-09-16T19:18:12.555Z,15.50
2017-09-16T19:20:40.285Z,15.50
2017-09-16T19:23:08.023Z,15.60
2017-09-16T19:25:36.169Z,15.60
2017-09-16T19:28:04.417Z,15.70
2017-09-16T19:30:32.733Z,15.80
2017-09-16T19:33:00.511Z,15.70
2017-09-16T19:35:28.476Z,15.80
2017-09-16T19:37:56.793Z,15.80
2017-09-16T19:40:24.240Z,15.80
2017-09-16T19:42:51.889Z,15.80
2017-09-16T19:45:19.341Z,15.70
2017-09-16T19:47:47.149Z,15.70
2017-09-16T19:50:15.367Z,15.60
2017-09-16T19:52:43.099Z,15.50
2017-09-16T19:55:11.420Z,15.50
2017-09-16T19:57:40.481Z,15.50
2017-09-16T20:00:08.721Z,15.50
2017-09-16T20:02:36.877Z,15.40
2017-09-16T20:05:04.405Z,15.50
2017-09-16T20:07:32.169Z,15.40
2017-09-16T20:09:59.730Z,15.40
2017-09-16T20:12:28.216Z,15.40
2017-09-16T20:14:56.564Z,15.30
2017-09-16T20:17:24.837Z,15.30
2017-09-16T20:19:52.677Z,15.30
2017-09-16T20:22:20.997Z,15.20
2017-09-16T20:24:50.770Z,15.20
2017-09-16T20:27:19.038Z,15.20
2017-09-16T20:29:46.521Z,15.10
2017-09-16T20:32:15.097Z,15.10
2017-09-16T20:34:43.330Z,15.10
2017-09-16T20:37:10.799Z,15.10
2017-09-16T20:39:39.058Z,15.10
2017-09-16T20:42:07.270Z,15.00
2017-09-16T20:44:35.217Z,15.00
2017-09-16T20:47:03.945Z,15.00
2017-09-16T20:49:32.173Z,14.90
2017-09-16T20:51:59.688Z,14.90
2017-09-16T20:54:27.157Z,14.90
2017-09-16T20:56:55.087Z,14.80
2017-09-16T20:59:22.623Z,14.80
2017-09-16T21:01:50.638Z,14.80
2017-09-16T21:04:19.704Z,14.80
2017-09-16T21:06:49.342Z,14.80
2017-09-16T21:09:16.882Z,14.70
2017-09-16T21:11:45.600Z,14.70
2017-09-16T21:14:13.060Z,14.70
2017-09-16T21:16:41.327Z,14.70
2017-09-16T21:19:09.575Z,14.70
2017-09-16T21:21:38.456Z,14.70
2017-09-16T21:24:07.375Z,14.70
2017-09-16T21:26:36.713Z,14.60
2017-09-16T21:29:04.993Z,14.60
2017-09-16T21:31:32.835Z,14.60
2017-09-16T21:34:01.057Z,14.50
2017-09-16T21:36:28.520Z,14.50
2017-09-16T21:38:56.850Z,14.40
2017-09-16T21:41:24.305Z,14.40
2017-09-16T21:43:52.029Z,14.40
2017-09-16T21:46:20.379Z,14.30
2017-09-16T21:48:48.400Z,14.20
2017-09-16T21:51:16.646Z,14.10
2017-09-16T21:53:44.902Z,14.10
2017-09-16T21:56:13.698Z,14.00
2017-09-16T21:58:42.649Z,14.10
2017-09-16T22:01:11.266Z,13.90
2017-09-16T22:03:39.632Z,13.90
2017-09-16T22:06:08.916Z,13.90
2017-09-16T22:08:36.746Z,13.80
2017-09-16T22:11:04.450Z,13.80
2017-09-16T22:13:31.908Z,13.80
2017-09-16T22:16:00.213Z,13.80
2017-09-16T22:18:27.665Z,13.80
2017-09-16T22:20:55.156Z,13.80
2017-09-16T22:23:24.631Z,13.80
2017-09-16T22:25:54.041Z,13.80
2017-09-16T22:28:21.503Z,13.70
2017-09-16T22:30:48.959Z,13.70
2017-09-16T22:33:16.441Z,13.70
2017-09-16T22:35:45.168Z,13.80
2017-09-16T22:38:12.639Z,13.80
2017-09-16T22:40:40.810Z,13.80
2017-09-16T22:43:09.029Z,13.70
2017-09-16T22:45:36.535Z,13.70
2017-09-16T22:48:04.536Z,13.70
2017-09-16T22:50:32.009Z,13.70
2017-09-16T22:53:00.423Z,13.60
2017-09-16T22:55:28.318Z,13.60
2017-09-16T22:57:57.418Z,13.60
2017-09-16T23:00:24.894Z,13.60
2017-09-16T23:02:52.898Z,13.60
2017-09-16T23:05:21.569Z,13.60
2017-09-16T23:07:50.189Z,13.50
2017-09-16T23:10:17.786Z,13.50
2017-09-16T23:12:45.986Z,13.40
2017-09-16T23:15:14.661Z,13.40
2017-09-16T23:17:42.104Z,13.30
2017-09-16T23:20:09.555Z,13.30
2017-09-16T23:22:37.224Z,13.20
2017-09-16T23:25:05.656Z,13.20
2017-09-16T23:27:33.110Z,13.20
2017-09-16T23:30:00.681Z,13.10
2017-09-16T23:32:29.052Z,13.10
2017-09-16T23:34:57.276Z,13.10
2017-09-16T23:37:24.798Z,13.00
2017-09-16T23:39:52.553Z,13.00
2017-09-16T23:42:20.000Z,13.00
2017-09-16T23:44:47.469Z,13.00
2017-09-16T23:47:16.052Z,13.00
2017-09-16T23:49:45.759Z,12.90
2017-09-16T23:52:13.238Z,12.90
2017-09-16T23:54:41.408Z,12.90
2017-09-16T23:57:09.579Z,12.90
2017-09-16T23:59:37.907Z,12.80
